Time;durP1;ratioP1;P1;durP2;ratioP2;P2;SDS_P1;SDS_P2;PMS_P1;PMS_P2;Temp;Humidity;BMP_temperature;BMP_pressure;BME280_temperature;BME280_humidity;BME280_pressure;Samples;Min_cycle;Max_cycle;Signal;HPM_P1;HPM_P2
2021/03/30 00:00:05;;;;;;;9.15;2.50;;;13.00;68.60;;;;;;5073749;28;20079;-69
2021/03/30 00:02:32;;;;;;;3.05;1.08;;;13.00;68.50;;;;;;5074581;28;20044;-70
2021/03/30 00:04:58;;;;;;;2.38;1.20;;;13.00;68.70;;;;;;5074319;28;20020;-69
2021/03/30 00:07:24;;;;;;;5.20;2.50;;;12.90;68.60;;;;;;5073739;28;20029;-70
2021/03/30 00:09:50;;;;;;;7.88;1.98;;;12.90;68.60;;;;;;5074521;28;20036;-70
2021/03/30 00:12:16;;;;;;;2.15;0.98;;;12.90;68.50;;;;;;5074116;28;20033;-70
2021/03/30 00:14:42;;;;;;;4.25;1.58;;;12.90;68.90;;;;;;5073597;28;20127;-70
2021/03/30 00:17:08;;;;;;;8.68;1.95;;;12.90;68.90;;;;;;5074242;28;20115;-70
2021/03/30 00:19:33;;;;;;;1.73;1.20;;;12.80;68.50;;;;;;5074037;28;20037;-69
2021/03/30 00:21:59;;;;;;;13.32;2.58;;;12.80;68.60;;;;;;5080850;28;20081;-70
2021/03/30 00:24:25;;;;;;;10.55;3.45;;;12.90;68.50;;;;;;5073919;28;20400;-69
2021/03/30 00:26:50;;;;;;;6.07;2.17;;;12.80;68.50;;;;;;5077239;28;20040;-69
2021/03/30 00:29:16;;;;;;;12.38;2.28;;;12.80;68.50;;;;;;5091130;28;20023;-70
2021/03/30 00:31:42;;;;;;;10.98;1.98;;;12.90;68.50;;;;;;5079747;28;20028;-69
2021/03/30 00:34:07;;;;;;;1.67;0.90;;;12.80;68.60;;;;;;5085631;28;20043;-70
2021/03/30 00:36:33;;;;;;;14.63;2.28;;;12.80;68.90;;;;;;5072937;28;20035;-69
2021/03/30 00:38:59;;;;;;;5.82;2.15;;;12.80;68.80;;;;;;5074001;28;20127;-70
2021/03/30 00:41:24;;;;;;;10.55;2.45;;;12.80;68.90;;;;;;5085386;28;20038;-70
2021/03/30 00:43:50;;;;;;;9.77;2.85;;;12.80;68.50;;;;;;5075083;28;20048;-69
2021/03/30 00:46:17;;;;;;;5.00;1.80;;;12.80;68.80;;;;;;5073846;28;20025;-69
2021/03/30 00:48:50;;;;;;;6.40;1.27;;;12.70;68.70;;;;;;5072846;28;20033;-70
2021/03/30 00:51:18;;;;;;;1.20;0.90;;;12.70;68.70;;;;;;5055698;28;20064;-70
2021/03/30 00:54:14;;;;;;;2.15;0.88;;;12.60;68.70;;;;;;5001040;28;20081;-70
2021/03/30 00:56:58;;;;;;;6.25;2.00;;;12.60;68.70;;;;;;5054667;28;20028;-69
2021/03/30 00:59:24;;;;;;;6.68;1.65;;;12.60;68.60;;;;;;5073246;28;20167;-69
2021/03/30 01:01:51;;;;;;;1.83;1.45;;;12.50;68.90;;;;;;5073381;28;20051;-69
2021/03/30 01:04:17;;;;;;;1.20;1.02;;;12.50;68.90;;;;;;5072440;28;20419;-70
2021/03/30 01:06:43;;;;;;;7.13;1.17;;;12.50;68.80;;;;;;5073202;28;20090;-69
2021/03/30 01:09:30;;;;;;;1.67;1.15;;;12.40;68.70;;;;;;5073028;28;20431;-69
2021/03/30 01:12:29;;;;;;;1.63;1.20;;;12.40;68.90;;;;;;5073431;28;20050;-69
2021/03/30 01:15:22;;;;;;;6.38;1.45;;;12.40;69.00;;;;;;5073170;28;20051;-69
2021/03/30 01:18:03;;;;;;;8.32;1.20;;;12.30;68.90;;;;;;5072142;28;20028;-70
2021/03/30 01:21:11;;;;;;;3.97;1.50;;;12.30;69.00;;;;;;5073170;28;20075;-69
2021/03/30 01:24:11;;;;;;;3.65;1.10;;;12.20;69.10;;;;;;5092807;28;20059;-70
2021/03/30 01:26:59;;;;;;;0.93;0.85;;;12.20;69.40;;;;;;5073031;28;20051;-69
2021/03/30 01:29:39;;;;;;;9.27;2.58;;;12.20;69.40;;;;;;5054638;28;20028;-69
2021/03/30 01:32:28;;;;;;;6.75;1.02;;;12.10;69.20;;;;;;5080548;28;20039;-69
2021/03/30 01:34:58;;;;;;;3.65;1.38;;;12.10;69.40;;;;;;5036069;28;20043;-69
2021/03/30 01:37:25;;;;;;;3.47;1.80;;;12.10;69.40;;;;;;5072846;28;20501;-69
2021/03/30 01:39:54;;;;;;;7.03;1.98;;;12.10;69.50;;;;;;5068144;28;20060;-69
2021/03/30 01:42:24;;;;;;;1.25;0.90;;;12.10;69.40;;;;;;5072925;28;20079;-69
2021/03/30 01:44:50;;;;;;;4.75;1.75;;;12.00;69.60;;;;;;5071767;28;20500;-69
2021/03/30 01:47:19;;;;;;;1.75;0.70;;;12.10;69.60;;;;;;5072805;28;20036;-69
2021/03/30 01:49:45;;;;;;;3.70;1.77;;;12.10;69.50;;;;;;5072754;28;20028;-69
2021/03/30 01:52:15;;;;;;;8.70;1.33;;;12.10;69.40;;;;;;5071778;28;20501;-69
2021/03/30 01:54:42;;;;;;;4.43;1.27;;;12.00;69.30;;;;;;5072513;28;20067;-70
2021/03/30 01:57:10;;;;;;;2.03;1.27;;;12.00;69.30;;;;;;5072663;28;20059;-70
2021/03/30 01:59:39;;;;;;;3.45;2.17;;;12.00;69.40;;;;;;5082273;28;20076;-69
2021/03/30 02:02:05;;;;;;;7.43;2.15;;;11.90;69.20;;;;;;5075308;28;20036;-69
2021/03/30 02:04:33;;;;;;;1.63;1.30;;;11.90;69.40;;;;;;5091040;28;20042;-69
2021/03/30 02:06:59;;;;;;;4.55;1.23;;;11.90;69.30;;;;;;5094780;28;20540;-69
2021/03/30 02:09:33;;;;;;;3.70;1.25;;;11.80;69.30;;;;;;5095914;28;20077;-73
2021/03/30 02:12:09;;;;;;;4.85;1.65;;;11.80;69.50;;;;;;5096877;28;20028;-75
2021/03/30 02:14:35;;;;;;;5.40;1.50;;;11.80;69.60;;;;;;5089919;28;20032;-75
2021/03/30 02:17:03;;;;;;;7.10;1.58;;;11.80;69.60;;;;;;5092632;28;20115;-72
2021/03/30 02:19:45;;;;;;;5.53;2.15;;;11.80;69.70;;;;;;5086597;28;20025;-70
2021/03/30 02:22:34;;;;;;;1.48;1.23;;;11.70;69.70;;;;;;5086548;28;20093;-70
2021/03/30 02:25:01;;;;;;;2.67;1.67;;;11.70;69.80;;;;;;5052016;28;20119;-69
2021/03/30 02:27:29;;;;;;;3.53;1.90;;;11.60;69.90;;;;;;5090104;28;20020;-69
2021/03/30 02:29:56;;;;;;;5.93;1.65;;;11.60;70.00;;;;;;5090286;28;20021;-69
2021/03/30 02:32:24;;;;;;;1.92;0.93;;;11.60;70.10;;;;;;5089272;28;20143;-69
2021/03/30 02:34:52;;;;;;;5.75;1.23;;;11.60;70.40;;;;;;5097651;28;20031;-69
2021/03/30 02:37:19;;;;;;;4.90;1.85;;;11.60;70.40;;;;;;5098226;28;20045;-69
2021/03/30 02:39:46;;;;;;;2.28;1.10;;;11.60;70.50;;;;;;5096421;28;20050;-70
2021/03/30 02:42:13;;;;;;;10.73;2.13;;;11.50;70.50;;;;;;5096235;28;20047;-70
2021/03/30 02:44:40;;;;;;;5.85;1.58;;;11.60;70.50;;;;;;5097503;28;20036;-69
2021/03/30 02:47:07;;;;;;;1.65;1.20;;;11.50;70.60;;;;;;5097211;28;20517;-69
2021/03/30 02:49:34;;;;;;;9.18;1.70;;;11.50;70.70;;;;;;5097009;28;20059;-69
2021/03/30 02:52:01;;;;;;;5.75;1.75;;;11.60;70.60;;;;;;5094652;28;20538;-70
2021/03/30 02:54:27;;;;;;;4.88;1.95;;;11.60;70.70;;;;;;5095418;28;20024;-69
2021/03/30 02:56:58;;;;;;;5.20;1.58;;;11.60;70.70;;;;;;5093909;28;20039;-69
2021/03/30 02:59:26;;;;;;;10.73;2.47;;;11.60;70.70;;;;;;5097057;28;20044;-69
2021/03/30 03:01:52;;;;;;;7.22;2.30;;;11.70;70.70;;;;;;5078034;28;20043;-69
2021/03/30 03:04:18;;;;;;;10.38;2.60;;;11.60;70.60;;;;;;5097357;28;20043;-69
2021/03/30 03:06:44;;;;;;;5.00;1.52;;;11.60;70.40;;;;;;5098400;28;20491;-69
2021/03/30 03:09:12;;;;;;;13.60;3.88;;;11.70;70.60;;;;;;5089763;28;20047;-69
2021/03/30 03:11:43;;;;;;;7.63;1.88;;;11.60;71.10;;;;;;5082222;28;20024;-69
2021/03/30 03:14:10;;;;;;;6.38;2.17;;;11.70;70.60;;;;;;5083279;28;20440;-69
2021/03/30 03:16:38;;;;;;;6.15;2.08;;;11.60;70.40;;;;;;5077421;28;20438;-69
2021/03/30 03:19:08;;;;;;;13.25;3.35;;;11.60;70.40;;;;;;5081237;28;20078;-69
2021/03/30 03:21:35;;;;;;;6.13;1.48;;;11.60;70.20;;;;;;5078367;28;20052;-69
2021/03/30 03:24:03;;;;;;;7.68;2.53;;;11.60;70.50;;;;;;5080412;28;20085;-69
2021/03/30 03:26:31;;;;;;;10.18;2.63;;;11.60;70.40;;;;;;5078381;28;20058;-69
2021/03/30 03:28:58;;;;;;;8.20;2.45;;;11.70;70.60;;;;;;5081228;28;20036;-69
2021/03/30 03:31:30;;;;;;;1.13;1.10;;;11.60;70.50;;;;;;5076570;28;20028;-69
2021/03/30 03:34:01;;;;;;;8.50;2.92;;;11.60;70.60;;;;;;5086059;28;20033;-69
2021/03/30 03:36:42;;;;;;;2.17;0.98;;;11.60;70.50;;;;;;5074950;28;20071;-69
2021/03/30 03:39:13;;;;;;;11.02;2.65;;;11.50;70.50;;;;;;5074568;28;20119;-69
2021/03/30 03:41:40;;;;;;;4.35;1.83;;;11.60;70.40;;;;;;5074914;28;20060;-69
2021/03/30 03:44:07;;;;;;;2.00;1.13;;;11.50;70.60;;;;;;5075006;28;20094;-69
2021/03/30 03:46:33;;;;;;;4.65;1.48;;;11.40;70.60;;;;;;5074156;28;20063;-69
2021/03/30 03:48:58;;;;;;;22.17;2.90;;;11.40;70.60;;;;;;5074824;28;20048;-69
2021/03/30 03:51:26;;;;;;;5.63;1.38;;;11.50;70.70;;;;;;5074210;28;20037;-69
2021/03/30 03:53:53;;;;;;;5.97;1.23;;;11.40;70.70;;;;;;5074482;28;20033;-69
2021/03/30 03:56:28;;;;;;;8.48;2.00;;;11.40;70.80;;;;;;5074643;28;20675;-69
2021/03/30 03:58:59;;;;;;;16.17;2.70;;;11.40;70.70;;;;;;5073532;28;20072;-69
2021/03/30 04:01:49;;;;;;;7.32;2.30;;;11.40;70.70;;;;;;5074499;28;20040;-69
2021/03/30 04:04:23;;;;;;;3.58;1.83;;;11.40;70.60;;;;;;5081396;28;20028;-69
2021/03/30 04:06:51;;;;;;;;;;;11.40;70.70;;;;;;5087058;28;20040;-69
2021/03/30 04:09:20;;;;;;;5.32;1.63;;;11.40;71.40;;;;;;5074332;28;19908;-69
2021/03/30 04:11:51;;;;;;;6.93;1.73;;;11.30;70.70;;;;;;5088180;28;20032;-69
2021/03/30 04:14:19;;;;;;;6.90;2.20;;;11.30;70.80;;;;;;5073646;28;20025;-69
2021/03/30 04:16:46;;;;;;;3.45;1.95;;;11.30;70.80;;;;;;5074390;28;20059;-69
2021/03/30 04:19:12;;;;;;;3.92;1.58;;;11.30;70.80;;;;;;5078923;28;20055;-69
2021/03/30 04:21:39;;;;;;;4.68;1.48;;;11.30;70.90;;;;;;5073305;28;20043;-69
2021/03/30 04:24:07;;;;;;;12.43;1.65;;;11.20;71.00;;;;;;5074112;28;20471;-69
2021/03/30 04:26:33;;;;;;;5.63;1.80;;;11.20;71.00;;;;;;5072497;28;20036;-69
2021/03/30 04:28:58;;;;;;;8.80;1.42;;;11.20;70.90;;;;;;5073647;28;20581;-69
2021/03/30 04:31:24;;;;;;;3.95;1.83;;;11.20;70.80;;;;;;5073916;28;20036;-69
2021/03/30 04:33:50;;;;;;;4.07;1.83;;;11.10;70.90;;;;;;5073378;28;20487;-69
2021/03/30 04:36:16;;;;;;;3.00;0.90;;;11.10;70.90;;;;;;5073902;28;20127;-69
2021/03/30 04:38:42;;;;;;;6.63;1.33;;;11.10;71.00;;;;;;5073756;28;20064;-69
2021/03/30 04:41:08;;;;;;;9.93;1.85;;;11.00;70.90;;;;;;5073122;28;20024;-69
2021/03/30 04:43:34;;;;;;;4.80;2.45;;;11.00;71.00;;;;;;5073465;28;20115;-69
2021/03/30 04:45:59;;;;;;;5.05;1.80;;;11.00;71.00;;;;;;5073622;28;20506;-69
2021/03/30 04:48:25;;;;;;;9.07;3.25;;;10.90;71.10;;;;;;5075247;28;20037;-69
2021/03/30 04:50:51;;;;;;;12.43;3.45;;;11.00;71.10;;;;;;5085285;28;20028;-69
2021/03/30 04:53:17;;;;;;;9.98;2.75;;;11.00;71.20;;;;;;5073253;28;20163;-69
2021/03/30 04:55:42;;;;;;;9.60;2.47;;;11.00;71.10;;;;;;5072743;28;20033;-69
2021/03/30 04:58:08;;;;;;;10.35;3.17;;;11.00;71.20;;;;;;5073318;28;20056;-69
2021/03/30 05:00:34;;;;;;;5.40;1.75;;;10.90;71.10;;;;;;5073326;28;20115;-69
2021/03/30 05:02:59;;;;;;;11.57;3.25;;;10.90;71.30;;;;;;5072828;28;20123;-69
2021/03/30 05:05:25;;;;;;;19.20;3.40;;;11.00;71.30;;;;;;5072997;28;20032;-70
2021/03/30 05:07:51;;;;;;;9.00;2.92;;;11.00;71.30;;;;;;5073815;28;20100;-69
2021/03/30 05:10:17;;;;;;;9.30;1.88;;;11.00;71.20;;;;;;5072454;28;20083;-69
2021/03/30 05:12:43;;;;;;;6.47;1.80;;;11.00;71.40;;;;;;5078130;28;20046;-69
2021/03/30 05:15:09;;;;;;;5.60;2.50;;;11.00;71.30;;;;;;5091717;28;20024;-69
2021/03/30 05:17:35;;;;;;;9.40;2.60;;;11.00;71.30;;;;;;5086251;28;20062;-69
2021/03/30 05:20:03;;;;;;;7.75;2.50;;;10.90;71.30;;;;;;5084216;28;20086;-70
2021/03/30 05:22:29;;;;;;;8.73;2.60;;;10.90;71.30;;;;;;5084514;28;20048;-70
2021/03/30 05:24:55;;;;;;;12.63;2.97;;;10.90;71.30;;;;;;5074780;28;20024;-68
2021/03/30 05:27:20;;;;;;;16.77;2.17;;;10.90;71.30;;;;;;5076220;28;20044;-68
2021/03/30 05:29:46;;;;;;;2.42;1.50;;;10.90;71.40;;;;;;5073686;28;20495;-69
2021/03/30 05:32:14;;;;;;;12.93;2.45;;;10.90;71.40;;;;;;5082108;28;20107;-70
2021/03/30 05:34:40;;;;;;;11.82;3.20;;;10.90;71.20;;;;;;5090599;28;20051;-70
2021/03/30 05:37:06;;;;;;;12.82;3.45;;;10.80;71.30;;;;;;5088327;28;20042;-70
2021/03/30 05:39:32;;;;;;;13.98;3.28;;;10.80;71.40;;;;;;5070722;28;20020;-69
2021/03/30 05:41:58;;;;;;;11.35;3.67;;;10.80;71.60;;;;;;5088745;28;20024;-70
2021/03/30 05:44:25;;;;;;;13.63;3.72;;;10.80;71.50;;;;;;5089759;28;20544;-69
2021/03/30 05:47:09;;;;;;;16.35;3.90;;;10.80;71.50;;;;;;5087835;28;20036;-69
2021/03/30 05:49:37;;;;;;;10.32;2.97;;;10.80;71.50;;;;;;5085488;28;20036;-69
2021/03/30 05:52:22;;;;;;;9.90;3.28;;;10.80;71.60;;;;;;5080576;28;20029;-69
2021/03/30 05:54:54;;;;;;;14.90;3.92;;;10.80;72.20;;;;;;5089025;28;20016;-70
2021/03/30 05:57:25;;;;;;;3.92;1.70;;;10.80;71.50;;;;;;5088742;28;20039;-69
2021/03/30 05:59:54;;;;;;;10.95;3.10;;;10.80;71.70;;;;;;5089732;28;20377;-69
2021/03/30 06:02:27;;;;;;;13.13;4.43;;;10.80;71.70;;;;;;5087213;28;20533;-68
2021/03/30 06:04:54;;;;;;;17.65;3.33;;;10.70;71.60;;;;;;5085872;28;20038;-69
2021/03/30 06:07:20;;;;;;;8.90;3.13;;;10.80;71.70;;;;;;5089066;28;20097;-69
2021/03/30 06:09:46;;;;;;;11.00;3.83;;;10.80;71.90;;;;;;5089777;28;20103;-69
2021/03/30 06:12:16;;;;;;;9.38;3.03;;;10.70;71.80;;;;;;5087549;28;20065;-70
2021/03/30 06:14:47;;;;;;;9.43;2.88;;;10.80;71.90;;;;;;5089922;28;20114;-69
2021/03/30 06:17:15;;;;;;;18.02;3.67;;;10.70;71.90;;;;;;5089888;28;20035;-70
2021/03/30 06:19:53;;;;;;;12.30;4.05;;;10.70;71.90;;;;;;5090484;28;20032;-69
2021/03/30 06:22:20;;;;;;;11.63;4.00;;;10.70;72.00;;;;;;5086642;28;20448;-69
2021/03/30 06:24:46;;;;;;;12.38;3.28;;;10.70;72.10;;;;;;5088480;28;20085;-69
2021/03/30 06:27:20;;;;;;;15.60;3.75;;;10.70;72.20;;;;;;5077559;28;20442;-69
2021/03/30 06:29:48;;;;;;;4.60;2.47;;;10.80;72.30;;;;;;5089711;28;20036;-69
2021/03/30 06:32:16;;;;;;;2.78;1.38;;;10.80;72.30;;;;;;5089805;28;20032;-69
2021/03/30 06:34:43;;;;;;;13.15;3.25;;;10.80;72.20;;;;;;5087004;28;20024;-69
2021/03/30 06:37:30;;;;;;;7.20;3.67;;;10.80;72.30;;;;;;5089766;28;20028;-69
2021/03/30 06:40:18;;;;;;;12.13;4.13;;;10.80;72.30;;;;;;5088065;28;20020;-69
2021/03/30 06:42:54;;;;;;;11.10;4.10;;;10.80;72.40;;;;;;5071911;28;20044;-69
2021/03/30 06:45:26;;;;;;;16.58;5.00;;;10.80;72.50;;;;;;5072588;28;20113;-69
2021/03/30 06:47:58;;;;;;;18.55;5.80;;;10.80;72.60;;;;;;5071716;28;20029;-69
2021/03/30 06:50:35;;;;;;;15.20;4.25;;;10.90;72.90;;;;;;5085475;28;20035;-69
2021/03/30 06:53:17;;;;;;;5.78;2.75;;;10.90;72.80;;;;;;5075944;28;20532;-69
2021/03/30 06:55:53;;;;;;;9.15;3.08;;;10.90;72.70;;;;;;5075138;28;20082;-69
2021/03/30 06:58:22;;;;;;;12.80;4.32;;;10.90;72.60;;;;;;5077670;28;20052;-69
2021/03/30 07:00:48;;;;;;;11.02;3.38;;;10.90;72.70;;;;;;5076663;28;20043;-69
2021/03/30 07:03:20;;;;;;;15.02;4.90;;;10.90;72.70;;;;;;5085457;28;20045;-68
2021/03/30 07:05:49;;;;;;;10.55;3.13;;;10.90;72.80;;;;;;5077581;28;20404;-69
2021/03/30 07:08:15;;;;;;;12.85;3.53;;;11.00;72.80;;;;;;5084192;28;20036;-69
2021/03/30 07:10:43;;;;;;;8.20;3.30;;;11.00;72.90;;;;;;5091704;28;20039;-68
2021/03/30 07:13:10;;;;;;;12.95;4.00;;;11.00;73.00;;;;;;5084655;28;20036;-68
2021/03/30 07:15:37;;;;;;;7.43;2.47;;;11.00;73.10;;;;;;5091458;28;20032;-68
2021/03/30 07:18:09;;;;;;;26.17;3.42;;;11.00;73.10;;;;;;5079891;28;20067;-68
2021/03/30 07:20:47;;;;;;;14.30;4.13;;;11.00;73.30;;;;;;5089642;28;20037;-68
2021/03/30 07:23:20;;;;;;;3.95;2.30;;;11.00;73.40;;;;;;5073621;28;20078;-69
2021/03/30 07:25:59;;;;;;;9.90;2.75;;;11.00;73.30;;;;;;5092024;28;20032;-68
2021/03/30 07:28:28;;;;;;;14.88;3.03;;;11.00;73.50;;;;;;5093685;28;20036;-68
2021/03/30 07:30:56;;;;;;;8.65;2.50;;;11.10;73.70;;;;;;5080380;28;20529;-68
2021/03/30 07:33:29;;;;;;;6.60;2.15;;;11.00;73.90;;;;;;5093788;28;20020;-67
2021/03/30 07:35:57;;;;;;;8.13;3.13;;;11.10;74.10;;;;;;5095309;28;20028;-68
2021/03/30 07:38:30;;;;;;;1.83;1.40;;;11.00;74.20;;;;;;5094249;28;20039;-68
2021/03/30 07:40:56;;;;;;;5.32;2.28;;;11.00;74.40;;;;;;5095199;28;20103;-68
2021/03/30 07:43:24;;;;;;;10.35;2.50;;;11.10;74.50;;;;;;5091321;28;20170;-67
2021/03/30 07:45:52;;;;;;;7.68;3.03;;;11.10;74.60;;;;;;5075009;28;20048;-68
2021/03/30 07:48:20;;;;;;;5.72;2.25;;;11.10;75.30;;;;;;5056617;28;20036;-68
2021/03/30 07:53:56;;;;;;;12.88;3.00;;;11.20;75.00;;;;;;5069323;28;20039;-68
2021/03/30 07:56:22;;;;;;;10.05;2.97;;;11.10;75.00;;;;;;5082879;28;20032;-69
2021/03/30 07:58:48;;;;;;;7.97;3.70;;;11.20;75.10;;;;;;5080302;28;20530;-70
2021/03/30 08:01:16;;;;;;;13.80;3.72;;;11.20;75.20;;;;;;5080750;28;20021;-68
2021/03/30 08:03:44;;;;;;;8.10;2.85;;;11.20;75.30;;;;;;5085354;28;20100;-68
2021/03/30 08:06:22;;;;;;;9.02;2.92;;;11.30;75.40;;;;;;5079386;28;20051;-69
2021/03/30 08:08:54;;;;;;;14.45;2.85;;;11.40;75.40;;;;;;5079807;28;20036;-68
2021/03/30 08:14:08;;;;;;;;;;;11.50;75.60;;;;;;5082392;28;20035;-68
2021/03/30 08:16:45;;;;;;;9.02;1.70;;;11.50;75.70;;;;;;5081257;28;19919;-68
2021/03/30 08:19:13;;;;;;;2.80;1.83;;;11.50;75.80;;;;;;5081186;28;20024;-68
2021/03/30 08:21:54;;;;;;;5.75;2.63;;;11.50;76.00;;;;;;5080767;28;20040;-68
2021/03/30 08:24:21;;;;;;;10.70;2.13;;;11.50;76.40;;;;;;5081181;28;20097;-68
2021/03/30 08:26:47;;;;;;;9.18;2.95;;;11.60;76.50;;;;;;5080612;28;20036;-68
2021/03/30 08:29:15;;;;;;;4.30;1.95;;;11.60;76.60;;;;;;5082973;28;20028;-68
2021/03/30 08:31:50;;;;;;;14.77;4.00;;;11.60;76.70;;;;;;5073072;28;20039;-68
2021/03/30 08:34:27;;;;;;;4.07;1.27;;;11.70;76.80;;;;;;5073184;28;20085;-68
2021/03/30 08:36:55;;;;;;;8.13;2.13;;;11.80;76.70;;;;;;5073708;28;20025;-68
2021/03/30 08:39:21;;;;;;;6.20;1.80;;;11.80;76.80;;;;;;5074019;28;20036;-68
2021/03/30 08:42:03;;;;;;;16.55;4.40;;;11.80;76.70;;;;;;5072940;28;20337;-68
2021/03/30 08:44:39;;;;;;;4.22;2.38;;;11.90;77.00;;;;;;5073067;28;20052;-69
2021/03/30 08:47:06;;;;;;;12.18;2.90;;;11.90;76.90;;;;;;5072789;28;20024;-68
2021/03/30 08:49:43;;;;;;;5.68;2.28;;;12.00;77.20;;;;;;5073493;28;20036;-68
2021/03/30 08:52:11;;;;;;;7.00;1.77;;;12.00;77.20;;;;;;5073322;28;20028;-68
2021/03/30 08:54:53;;;;;;;5.88;2.25;;;12.10;77.20;;;;;;5072698;28;20032;-68
2021/03/30 08:57:22;;;;;;;2.85;1.70;;;12.10;77.30;;;;;;5072971;28;20028;-68
2021/03/30 08:59:51;;;;;;;12.38;4.82;;;12.20;77.40;;;;;;5085518;28;20063;-68
2021/03/30 09:02:24;;;;;;;14.73;4.80;;;12.20;77.50;;;;;;5073922;28;20115;-68
2021/03/30 09:04:50;;;;;;;5.78;2.10;;;12.30;77.50;;;;;;5073397;28;20531;-68
2021/03/30 09:07:17;;;;;;;18.20;2.92;;;12.30;77.50;;;;;;5073185;28;20025;-68
2021/03/30 09:09:43;;;;;;;10.68;2.25;;;12.40;77.50;;;;;;5072447;28;20086;-69
2021/03/30 09:12:17;;;;;;;7.00;2.00;;;12.40;77.50;;;;;;5072928;28;20055;-68
2021/03/30 09:14:48;;;;;;;8.85;3.22;;;12.50;77.70;;;;;;5072270;28;20107;-68
2021/03/30 09:17:18;;;;;;;2.60;1.98;;;12.50;77.60;;;;;;5073050;28;20036;-69
2021/03/30 09:19:48;;;;;;;15.40;5.57;;;12.60;78.40;;;;;;5073125;28;20035;-68
2021/03/30 09:22:39;;;;;;;6.45;2.75;;;12.60;77.80;;;;;;5072233;28;20046;-72
2021/03/30 09:25:31;;;;;;;16.58;3.17;;;12.60;78.10;;;;;;5087368;28;20043;-68
2021/03/30 09:27:57;;;;;;;10.52;3.25;;;12.70;77.90;;;;;;5089916;28;20024;-68
2021/03/30 09:30:26;;;;;;;14.68;3.40;;;12.70;78.00;;;;;;5070234;28;20460;-68
2021/03/30 09:32:54;;;;;;;4.38;1.08;;;12.80;78.00;;;;;;5088648;28;20055;-68
2021/03/30 09:35:23;;;;;;;11.70;3.63;;;12.90;78.00;;;;;;5090511;28;20040;-68
2021/03/30 09:38:03;;;;;;;15.25;4.97;;;12.90;78.00;;;;;;5076853;28;20123;-68
2021/03/30 09:40:33;;;;;;;4.22;2.03;;;13.00;77.80;;;;;;5085280;28;20028;-68
2021/03/30 09:43:00;;;;;;;4.75;2.38;;;13.10;77.90;;;;;;5086832;28;20038;-69
2021/03/30 09:45:31;;;;;;;6.70;2.47;;;13.10;77.90;;;;;;5091917;28;20476;-69
2021/03/30 09:47:59;;;;;;;8.73;3.40;;;13.20;77.90;;;;;;5092813;28;20031;-69
2021/03/30 09:50:27;;;;;;;8.40;2.25;;;13.30;77.90;;;;;;5081437;28;20025;-69
2021/03/30 09:52:53;;;;;;;9.88;3.72;;;13.30;77.70;;;;;;5078202;28;20652;-69
2021/03/30 09:55:48;;;;;;;11.30;3.75;;;13.40;77.70;;;;;;5083798;28;20024;-69
2021/03/30 09:58:18;;;;;;;10.73;2.92;;;13.50;77.70;;;;;;5071784;28;20039;-69
2021/03/30 10:00:47;;;;;;;13.50;2.65;;;13.50;77.70;;;;;;5090468;28;20028;-71
2021/03/30 10:03:14;;;;;;;6.07;2.40;;;13.60;77.70;;;;;;5092319;28;20368;-67
2021/03/30 10:05:41;;;;;;;9.55;3.50;;;13.60;77.80;;;;;;5091265;28;20042;-68
2021/03/30 10:08:24;;;;;;;10.70;2.88;;;13.70;77.90;;;;;;5090141;28;20057;-68
2021/03/30 10:10:54;;;;;;;8.50;3.20;;;13.70;78.00;;;;;;5088114;28;20039;-67
2021/03/30 10:13:30;;;;;;;4.95;2.17;;;13.80;77.70;;;;;;5084908;28;20038;-67
2021/03/30 10:15:58;;;;;;;6.60;3.25;;;13.90;77.90;;;;;;5080691;28;20052;-67
2021/03/30 10:18:26;;;;;;;18.55;3.90;;;13.90;77.80;;;;;;5083446;28;20024;-67
2021/03/30 10:21:01;;;;;;;10.43;3.47;;;13.90;77.60;;;;;;5081709;28;20115;-68
2021/03/30 10:23:34;;;;;;;7.85;3.25;;;14.00;77.60;;;;;;5083715;28;20032;-67
2021/03/30 10:26:29;;;;;;;2.75;1.98;;;14.20;77.50;;;;;;5090855;28;20028;-68
2021/03/30 10:29:02;;;;;;;7.28;2.22;;;14.30;77.60;;;;;;5074895;28;20089;-70
2021/03/30 10:31:46;;;;;;;3.78;1.65;;;14.20;77.30;;;;;;5078472;28;20439;-68
2021/03/30 10:34:28;;;;;;;5.60;2.08;;;14.30;77.20;;;;;;5075715;28;20115;-67
2021/03/30 10:36:59;;;;;;;11.65;3.80;;;14.40;77.00;;;;;;5076053;28;20051;-67
2021/03/30 10:39:37;;;;;;;12.25;3.28;;;14.40;77.20;;;;;;5075578;28;20112;-67
2021/03/30 10:42:08;;;;;;;7.45;2.15;;;14.50;76.90;;;;;;5077608;28;20029;-68
2021/03/30 10:44:55;;;;;;;5.63;2.58;;;14.50;77.10;;;;;;5093824;28;20077;-67
2021/03/30 10:47:23;;;;;;;9.23;3.20;;;14.60;77.20;;;;;;5091787;28;20031;-68
2021/03/30 10:49:55;;;;;;;6.57;2.70;;;14.70;76.60;;;;;;5093607;28;20028;-69
2021/03/30 10:52:25;;;;;;;6.93;3.42;;;14.70;76.40;;;;;;5078191;28;20017;-69
2021/03/30 10:54:53;;;;;;;6.55;2.97;;;14.80;76.20;;;;;;5078757;28;20051;-70
2021/03/30 10:57:21;;;;;;;21.33;4.75;;;14.80;76.60;;;;;;5077830;28;20026;-68
2021/03/30 10:59:47;;;;;;;11.73;3.67;;;14.90;76.10;;;;;;5088186;28;20433;-68
2021/03/30 11:02:14;;;;;;;17.83;4.65;;;14.90;76.50;;;;;;5078969;28;20032;-68
2021/03/30 11:04:41;;;;;;;7.15;2.67;;;15.10;75.40;;;;;;5077473;28;20037;-68
2021/03/30 11:07:08;;;;;;;14.43;3.50;;;15.10;76.20;;;;;;5078665;28;20064;-68
2021/03/30 11:09:34;;;;;;;7.40;2.70;;;15.20;76.20;;;;;;5076873;28;20059;-68
2021/03/30 11:12:00;;;;;;;7.78;2.85;;;15.20;76.10;;;;;;5079224;28;20039;-68
2021/03/30 11:14:26;;;;;;;8.05;3.70;;;15.30;75.90;;;;;;5076649;28;20021;-68
2021/03/30 11:16:52;;;;;;;5.95;2.80;;;15.40;75.20;;;;;;5077980;28;20384;-68
2021/03/30 11:19:18;;;;;;;8.98;3.22;;;15.40;75.40;;;;;;5078536;28;20029;-68
2021/03/30 11:21:44;;;;;;;11.43;3.80;;;15.50;75.20;;;;;;5076699;28;20028;-68
2021/03/30 11:24:19;;;;;;;4.90;1.75;;;15.50;74.90;;;;;;5079036;28;20063;-68
2021/03/30 11:26:50;;;;;;;6.22;2.63;;;15.50;75.50;;;;;;5077084;28;20476;-68
2021/03/30 11:35:03;;;;;;;4.07;1.88;;;15.80;74.90;;;;;;5087637;28;20419;-69
2021/03/30 11:39:56;;;;;;;5.95;2.38;;;15.90;74.10;;;;;;5084914;28;20463;-71
2021/03/30 11:42:22;;;;;;;11.20;3.53;;;15.90;74.60;;;;;;5086052;28;20040;-69
2021/03/30 11:44:48;;;;;;;8.23;2.38;;;15.90;74.50;;;;;;5091699;28;20025;-69
2021/03/30 11:47:14;;;;;;;13.63;2.20;;;16.10;74.80;;;;;;5087647;28;20024;-68
2021/03/30 11:49:40;;;;;;;8.00;3.20;;;16.10;74.40;;;;;;5091459;28;20024;-68
2021/03/30 11:52:06;;;;;;;7.15;2.20;;;16.20;74.00;;;;;;5085078;28;20534;-68
2021/03/30 11:54:36;;;;;;;5.78;2.90;;;16.20;74.00;;;;;;5090052;28;20429;-68
2021/03/30 11:57:02;;;;;;;6.15;1.67;;;16.30;74.30;;;;;;5085486;28;20050;-68
2021/03/30 11:59:28;;;;;;;6.70;1.85;;;16.40;73.80;;;;;;5087987;28;20098;-68
2021/03/30 12:01:54;;;;;;;7.35;3.33;;;16.40;73.10;;;;;;5088341;28;20793;-68
2021/03/30 12:04:20;;;;;;;8.68;2.95;;;16.50;72.80;;;;;;5085860;28;20040;-68
2021/03/30 12:06:46;;;;;;;7.03;3.15;;;16.50;72.40;;;;;;5089891;28;20020;-67
2021/03/30 12:09:14;;;;;;;12.07;3.22;;;16.60;72.20;;;;;;5084243;28;20476;-68
2021/03/30 12:11:44;;;;;;;14.80;2.97;;;16.70;72.50;;;;;;5091278;28;20053;-67
2021/03/30 12:14:11;;;;;;;10.38;3.95;;;16.80;72.90;;;;;;5090872;28;20032;-67
2021/03/30 12:16:37;;;;;;;6.85;2.80;;;16.80;71.40;;;;;;5091929;28;20375;-73
2021/03/30 12:19:03;;;;;;;8.00;3.17;;;16.90;72.10;;;;;;5087924;28;20024;-67
2021/03/30 12:21:29;;;;;;;6.47;3.25;;;17.00;71.90;;;;;;5089501;28;20047;-68
2021/03/30 12:23:55;;;;;;;9.75;2.35;;;17.10;71.40;;;;;;5082746;28;20418;-68
2021/03/30 12:26:21;;;;;;;8.52;2.38;;;17.10;72.50;;;;;;5083307;28;20062;-68
2021/03/30 12:28:47;;;;;;;12.57;2.92;;;17.20;73.30;;;;;;5091518;28;20020;-68
2021/03/30 12:31:12;;;;;;;2.88;2.00;;;17.30;72.70;;;;;;5074955;28;20094;-68
2021/03/30 12:33:39;;;;;;;8.77;2.60;;;17.30;73.00;;;;;;5075797;28;20024;-67
2021/03/30 12:36:06;;;;;;;6.03;2.90;;;17.50;72.00;;;;;;5088947;28;20035;-69
2021/03/30 12:38:31;;;;;;;6.05;2.15;;;17.50;71.00;;;;;;5090403;28;20036;-69
2021/03/30 12:41:00;;;;;;;2.38;1.52;;;17.60;71.00;;;;;;5089812;28;20039;-67
2021/03/30 12:43:29;;;;;;;12.60;4.15;;;17.60;72.00;;;;;;5087862;28;20032;-67
2021/03/30 12:45:57;;;;;;;7.38;2.53;;;17.70;69.60;;;;;;5091913;28;20027;-67
2021/03/30 12:48:23;;;;;;;7.20;2.60;;;17.80;71.00;;;;;;5073735;28;20402;-67
2021/03/30 12:50:56;;;;;;;6.57;3.53;;;17.80;70.70;;;;;;5093337;28;20069;-67
2021/03/30 12:53:24;;;;;;;10.63;3.42;;;18.00;70.30;;;;;;5070486;28;20096;-67
2021/03/30 12:55:51;;;;;;;8.57;4.13;;;18.00;71.40;;;;;;5089824;28;20035;-67
2021/03/30 12:58:18;;;;;;;6.70;2.53;;;18.10;68.20;;;;;;5085362;28;20028;-67
2021/03/30 13:00:49;;;;;;;13.75;3.75;;;18.20;71.20;;;;;;5071931;28;20028;-66
2021/03/30 13:03:15;;;;;;;9.18;2.70;;;18.30;69.40;;;;;;5091408;28;20042;-68
2021/03/30 13:05:40;;;;;;;7.95;3.22;;;18.30;71.50;;;;;;5088117;28;20477;-68
2021/03/30 13:08:07;;;;;;;5.13;2.00;;;18.40;69.10;;;;;;5090465;28;20155;-68
2021/03/30 13:10:36;;;;;;;9.40;2.47;;;18.50;71.30;;;;;;5085812;28;20040;-68